sensor_id;sensor_type;location;lat;lon;timestamp;P1;durP1;ratioP1;P2;durP2;ratioP2
20890;SDS011;10605;52.968;8.844;2023-03-08T00:02:17;13.57;;;7.53;;
20890;SDS011;10605;52.968;8.844;2023-03-08T00:04:42;7.50;;;6.90;;
20890;SDS011;10605;52.968;8.844;2023-03-08T00:07:08;17.37;;;7.90;;
20890;SDS011;10605;52.968;8.844;2023-03-08T00:09:34;9.73;;;7.33;;
20890;SDS011;10605;52.968;8.844;2023-03-08T00:12:02;14.07;;;8.10;;
20890;SDS011;10605;52.968;8.844;2023-03-08T00:14:27;11.20;;;8.47;;
20890;SDS011;10605;52.968;8.844;2023-03-08T00:16:53;14.03;;;8.03;;
20890;SDS011;10605;52.968;8.844;2023-03-08T00:19:19;11.23;;;8.27;;
20890;SDS011;10605;52.968;8.844;2023-03-08T00:21:44;11.50;;;8.47;;
20890;SDS011;10605;52.968;8.844;2023-03-08T00:24:10;14.90;;;8.50;;
20890;SDS011;10605;52.968;8.844;2023-03-08T00:26:36;10.30;;;8.27;;
20890;SDS011;10605;52.968;8.844;2023-03-08T00:29:02;11.40;;;8.53;;
20890;SDS011;10605;52.968;8.844;2023-03-08T00:31:28;14.90;;;9.27;;
20890;SDS011;10605;52.968;8.844;2023-03-08T00:33:53;11.17;;;9.07;;
20890;SDS011;10605;52.968;8.844;2023-03-08T00:36:19;11.53;;;9.27;;
20890;SDS011;10605;52.968;8.844;2023-03-08T00:38:46;12.97;;;8.50;;
20890;SDS011;10605;52.968;8.844;2023-03-08T00:41:12;8.90;;;8.03;;
20890;SDS011;10605;52.968;8.844;2023-03-08T00:43:38;15.10;;;8.97;;
20890;SDS011;10605;52.968;8.844;2023-03-08T00:46:06;9.57;;;8.27;;
20890;SDS011;10605;52.968;8.844;2023-03-08T00:48:32;10.00;;;7.73;;
20890;SDS011;10605;52.968;8.844;2023-03-08T00:50:57;9.60;;;8.37;;
20890;SDS011;10605;52.968;8.844;2023-03-08T00:53:23;9.17;;;8.07;;
20890;SDS011;10605;52.968;8.844;2023-03-08T00:55:50;10.70;;;8.10;;
20890;SDS011;10605;52.968;8.844;2023-03-08T00:58:17;7.57;;;6.90;;
20890;SDS011;10605;52.968;8.844;2023-03-08T01:00:44;8.47;;;7.07;;
20890;SDS011;10605;52.968;8.844;2023-03-08T01:03:09;10.00;;;7.20;;
20890;SDS011;10605;52.968;8.844;2023-03-08T01:05:39;9.17;;;6.87;;
20890;SDS011;10605;52.968;8.844;2023-03-08T01:08:09;8.97;;;6.60;;
20890;SDS011;10605;52.968;8.844;2023-03-08T01:10:35;7.93;;;7.20;;
20890;SDS011;10605;52.968;8.844;2023-03-08T01:13:02;10.37;;;6.80;;
20890;SDS011;10605;52.968;8.844;2023-03-08T01:15:29;10.27;;;6.73;;
20890;SDS011;10605;52.968;8.844;2023-03-08T01:17:59;8.57;;;6.93;;
20890;SDS011;10605;52.968;8.844;2023-03-08T01:20:24;9.53;;;7.27;;
20890;SDS011;10605;52.968;8.844;2023-03-08T01:22:50;8.83;;;7.53;;
20890;SDS011;10605;52.968;8.844;2023-03-08T01:25:15;8.27;;;6.70;;
20890;SDS011;10605;52.968;8.844;2023-03-08T01:27:41;8.63;;;7.33;;
20890;SDS011;10605;52.968;8.844;2023-03-08T01:30:07;9.63;;;7.20;;
20890;SDS011;10605;52.968;8.844;2023-03-08T01:32:33;11.53;;;7.77;;
20890;SDS011;10605;52.968;8.844;2023-03-08T01:34:59;11.93;;;7.80;;
20890;SDS011;10605;52.968;8.844;2023-03-08T01:37:28;14.50;;;10.63;;
20890;SDS011;10605;52.968;8.844;2023-03-08T01:39:54;8.97;;;8.07;;
20890;SDS011;10605;52.968;8.844;2023-03-08T01:42:20;10.53;;;9.10;;
20890;SDS011;10605;52.968;8.844;2023-03-08T01:44:47;12.97;;;10.17;;
20890;SDS011;10605;52.968;8.844;2023-03-08T01:47:18;12.40;;;11.10;;
20890;SDS011;10605;52.968;8.844;2023-03-08T01:49:45;15.07;;;12.27;;
20890;SDS011;10605;52.968;8.844;2023-03-08T01:52:13;17.60;;;11.37;;
20890;SDS011;10605;52.968;8.844;2023-03-08T01:54:54;21.17;;;13.00;;
20890;SDS011;10605;52.968;8.844;2023-03-08T01:57:23;21.07;;;12.70;;
20890;SDS011;10605;52.968;8.844;2023-03-08T01:59:56;21.07;;;15.47;;
20890;SDS011;10605;52.968;8.844;2023-03-08T02:02:29;35.03;;;21.10;;
20890;SDS011;10605;52.968;8.844;2023-03-08T02:05:00;43.87;;;20.90;;
20890;SDS011;10605;52.968;8.844;2023-03-08T02:07:26;32.13;;;18.87;;
20890;SDS011;10605;52.968;8.844;2023-03-08T02:09:52;29.93;;;19.37;;
20890;SDS011;10605;52.968;8.844;2023-03-08T02:12:18;27.27;;;18.27;;
20890;SDS011;10605;52.968;8.844;2023-03-08T02:14:45;24.33;;;18.45;;
20890;SDS011;10605;52.968;8.844;2023-03-08T02:17:11;25.87;;;19.50;;
20890;SDS011;10605;52.968;8.844;2023-03-08T02:22:25;26.80;;;19.07;;
20890;SDS011;10605;52.968;8.844;2023-03-08T02:24:51;25.37;;;17.70;;
20890;SDS011;10605;52.968;8.844;2023-03-08T02:27:17;22.53;;;16.57;;
20890;SDS011;10605;52.968;8.844;2023-03-08T02:29:47;26.77;;;16.27;;
20890;SDS011;10605;52.968;8.844;2023-03-08T02:32:13;26.03;;;18.10;;
20890;SDS011;10605;52.968;8.844;2023-03-08T02:34:39;25.43;;;17.70;;
20890;SDS011;10605;52.968;8.844;2023-03-08T02:37:05;24.43;;;17.03;;
20890;SDS011;10605;52.968;8.844;2023-03-08T02:39:31;28.93;;;18.87;;
20890;SDS011;10605;52.968;8.844;2023-03-08T02:41:57;25.57;;;17.63;;
20890;SDS011;10605;52.968;8.844;2023-03-08T02:44:23;28.97;;;17.60;;
20890;SDS011;10605;52.968;8.844;2023-03-08T02:46:48;25.37;;;17.40;;
20890;SDS011;10605;52.968;8.844;2023-03-08T02:49:14;26.87;;;16.77;;
20890;SDS011;10605;52.968;8.844;2023-03-08T02:51:40;34.63;;;19.47;;
20890;SDS011;10605;52.968;8.844;2023-03-08T02:54:06;28.00;;;16.83;;
20890;SDS011;10605;52.968;8.844;2023-03-08T02:56:32;27.90;;;17.00;;
20890;SDS011;10605;52.968;8.844;2023-03-08T02:58:58;25.83;;;16.47;;
20890;SDS011;10605;52.968;8.844;2023-03-08T03:01:23;29.60;;;16.87;;
20890;SDS011;10605;52.968;8.844;2023-03-08T03:03:49;29.80;;;17.75;;
20890;SDS011;10605;52.968;8.844;2023-03-08T03:06:19;31.27;;;17.35;;
20890;SDS011;10605;52.968;8.844;2023-03-08T03:08:45;29.60;;;19.40;;
20890;SDS011;10605;52.968;8.844;2023-03-08T03:11:14;29.02;;;18.13;;
20890;SDS011;10605;52.968;8.844;2023-03-08T03:13:42;27.93;;;16.83;;
20890;SDS011;10605;52.968;8.844;2023-03-08T03:16:12;30.15;;;17.58;;
20890;SDS011;10605;52.968;8.844;2023-03-08T03:18:39;32.77;;;19.77;;
20890;SDS011;10605;52.968;8.844;2023-03-08T03:21:06;30.37;;;19.33;;
20890;SDS011;10605;52.968;8.844;2023-03-08T03:23:34;35.60;;;23.83;;
20890;SDS011;10605;52.968;8.844;2023-03-08T03:26:04;30.47;;;18.83;;
20890;SDS011;10605;52.968;8.844;2023-03-08T03:28:31;34.27;;;20.83;;
20890;SDS011;10605;52.968;8.844;2023-03-08T03:30:57;26.58;;;17.48;;
20890;SDS011;10605;52.968;8.844;2023-03-08T03:33:23;31.42;;;18.23;;
20890;SDS011;10605;52.968;8.844;2023-03-08T03:35:49;35.77;;;19.47;;
20890;SDS011;10605;52.968;8.844;2023-03-08T03:38:15;31.30;;;18.87;;
20890;SDS011;10605;52.968;8.844;2023-03-08T03:40:40;34.37;;;23.03;;
20890;SDS011;10605;52.968;8.844;2023-03-08T03:43:06;28.10;;;18.03;;
20890;SDS011;10605;52.968;8.844;2023-03-08T03:45:32;31.10;;;16.40;;
20890;SDS011;10605;52.968;8.844;2023-03-08T03:47:57;30.50;;;17.33;;
20890;SDS011;10605;52.968;8.844;2023-03-08T03:50:23;32.20;;;16.77;;
20890;SDS011;10605;52.968;8.844;2023-03-08T03:52:49;29.25;;;18.20;;
20890;SDS011;10605;52.968;8.844;2023-03-08T03:55:14;23.27;;;16.63;;
20890;SDS011;10605;52.968;8.844;2023-03-08T03:57:40;23.90;;;17.30;;
20890;SDS011;10605;52.968;8.844;2023-03-08T04:00:06;24.50;;;16.40;;
20890;SDS011;10605;52.968;8.844;2023-03-08T04:02:32;23.07;;;16.83;;
20890;SDS011;10605;52.968;8.844;2023-03-08T04:04:58;23.43;;;17.00;;
20890;SDS011;10605;52.968;8.844;2023-03-08T04:07:24;25.73;;;17.67;;
20890;SDS011;10605;52.968;8.844;2023-03-08T04:09:49;24.33;;;16.73;;
20890;SDS011;10605;52.968;8.844;2023-03-08T04:12:15;27.97;;;17.80;;
20890;SDS011;10605;52.968;8.844;2023-03-08T04:14:41;32.27;;;18.43;;
20890;SDS011;10605;52.968;8.844;2023-03-08T04:17:06;29.98;;;18.75;;
20890;SDS011;10605;52.968;8.844;2023-03-08T04:19:32;33.10;;;18.77;;
20890;SDS011;10605;52.968;8.844;2023-03-08T04:21:58;27.60;;;17.55;;
20890;SDS011;10605;52.968;8.844;2023-03-08T04:24:24;33.28;;;18.67;;
20890;SDS011;10605;52.968;8.844;2023-03-08T04:26:49;26.15;;;18.60;;
20890;SDS011;10605;52.968;8.844;2023-03-08T04:29:15;29.50;;;18.88;;
20890;SDS011;10605;52.968;8.844;2023-03-08T04:31:40;30.23;;;18.30;;
20890;SDS011;10605;52.968;8.844;2023-03-08T04:34:06;33.47;;;19.97;;
20890;SDS011;10605;52.968;8.844;2023-03-08T04:36:32;33.93;;;21.13;;
20890;SDS011;10605;52.968;8.844;2023-03-08T04:38:58;30.57;;;20.10;;
20890;SDS011;10605;52.968;8.844;2023-03-08T04:41:23;29.10;;;18.85;;
20890;SDS011;10605;52.968;8.844;2023-03-08T04:43:53;26.20;;;19.17;;
20890;SDS011;10605;52.968;8.844;2023-03-08T04:46:24;28.30;;;18.15;;
20890;SDS011;10605;52.968;8.844;2023-03-08T04:48:52;31.17;;;19.42;;
20890;SDS011;10605;52.968;8.844;2023-03-08T04:51:19;26.33;;;17.83;;
20890;SDS011;10605;52.968;8.844;2023-03-08T04:53:46;26.25;;;18.05;;
20890;SDS011;10605;52.968;8.844;2023-03-08T04:56:12;27.47;;;17.70;;
20890;SDS011;10605;52.968;8.844;2023-03-08T04:58:39;23.17;;;17.60;;
20890;SDS011;10605;52.968;8.844;2023-03-08T05:03:41;27.00;;;18.17;;
20890;SDS011;10605;52.968;8.844;2023-03-08T05:06:08;35.50;;;18.87;;
20890;SDS011;10605;52.968;8.844;2023-03-08T05:08:34;29.10;;;18.73;;
20890;SDS011;10605;52.968;8.844;2023-03-08T05:11:00;32.00;;;17.50;;
20890;SDS011;10605;52.968;8.844;2023-03-08T05:13:27;31.07;;;18.50;;
20890;SDS011;10605;52.968;8.844;2023-03-08T05:15:54;31.73;;;18.40;;
20890;SDS011;10605;52.968;8.844;2023-03-08T05:18:20;30.77;;;18.87;;
20890;SDS011;10605;52.968;8.844;2023-03-08T05:20:56;39.67;;;22.93;;
20890;SDS011;10605;52.968;8.844;2023-03-08T05:23:25;27.13;;;19.37;;
20890;SDS011;10605;52.968;8.844;2023-03-08T05:25:52;36.30;;;19.77;;
20890;SDS011;10605;52.968;8.844;2023-03-08T05:28:19;30.30;;;18.67;;
20890;SDS011;10605;52.968;8.844;2023-03-08T05:30:46;27.33;;;17.33;;
20890;SDS011;10605;52.968;8.844;2023-03-08T05:33:12;32.77;;;18.60;;
20890;SDS011;10605;52.968;8.844;2023-03-08T05:35:38;34.03;;;18.60;;
20890;SDS011;10605;52.968;8.844;2023-03-08T05:38:04;28.30;;;17.73;;
20890;SDS011;10605;52.968;8.844;2023-03-08T05:40:29;29.07;;;18.10;;
20890;SDS011;10605;52.968;8.844;2023-03-08T05:42:55;29.20;;;18.27;;
20890;SDS011;10605;52.968;8.844;2023-03-08T05:45:21;28.43;;;18.93;;
20890;SDS011;10605;52.968;8.844;2023-03-08T05:47:47;30.47;;;18.57;;
20890;SDS011;10605;52.968;8.844;2023-03-08T05:50:12;28.50;;;18.73;;
20890;SDS011;10605;52.968;8.844;2023-03-08T05:52:38;32.87;;;19.70;;
20890;SDS011;10605;52.968;8.844;2023-03-08T05:55:06;30.65;;;19.85;;
20890;SDS011;10605;52.968;8.844;2023-03-08T05:57:33;33.90;;;19.93;;
20890;SDS011;10605;52.968;8.844;2023-03-08T05:59:58;32.10;;;20.17;;
20890;SDS011;10605;52.968;8.844;2023-03-08T06:02:24;36.70;;;20.80;;
20890;SDS011;10605;52.968;8.844;2023-03-08T06:04:49;28.20;;;19.07;;
20890;SDS011;10605;52.968;8.844;2023-03-08T06:07:15;29.27;;;19.60;;
20890;SDS011;10605;52.968;8.844;2023-03-08T06:09:42;29.83;;;19.17;;
20890;SDS011;10605;52.968;8.844;2023-03-08T06:12:07;32.13;;;19.30;;
20890;SDS011;10605;52.968;8.844;2023-03-08T06:14:33;31.43;;;19.60;;
20890;SDS011;10605;52.968;8.844;2023-03-08T06:16:59;27.00;;;19.10;;
20890;SDS011;10605;52.968;8.844;2023-03-08T06:19:24;29.70;;;18.93;;
20890;SDS011;10605;52.968;8.844;2023-03-08T06:21:50;28.50;;;19.03;;
20890;SDS011;10605;52.968;8.844;2023-03-08T06:24:15;28.00;;;17.93;;
20890;SDS011;10605;52.968;8.844;2023-03-08T06:26:41;31.17;;;19.70;;
20890;SDS011;10605;52.968;8.844;2023-03-08T06:29:07;36.47;;;20.57;;
20890;SDS011;10605;52.968;8.844;2023-03-08T06:31:32;40.35;;;20.45;;
20890;SDS011;10605;52.968;8.844;2023-03-08T06:33:58;34.63;;;20.47;;
20890;SDS011;10605;52.968;8.844;2023-03-08T06:36:24;35.40;;;21.20;;
20890;SDS011;10605;52.968;8.844;2023-03-08T06:38:49;37.97;;;21.67;;
20890;SDS011;10605;52.968;8.844;2023-03-08T06:41:16;31.73;;;20.48;;
20890;SDS011;10605;52.968;8.844;2023-03-08T06:43:43;36.67;;;20.97;;
20890;SDS011;10605;52.968;8.844;2023-03-08T06:46:16;34.43;;;20.93;;
20890;SDS011;10605;52.968;8.844;2023-03-08T06:48:42;34.40;;;19.77;;
20890;SDS011;10605;52.968;8.844;2023-03-08T06:51:09;29.25;;;18.05;;
20890;SDS011;10605;52.968;8.844;2023-03-08T06:53:35;35.33;;;18.40;;
20890;SDS011;10605;52.968;8.844;2023-03-08T06:56:02;29.40;;;17.45;;
20890;SDS011;10605;52.968;8.844;2023-03-08T06:58:29;25.38;;;17.23;;
20890;SDS011;10605;52.968;8.844;2023-03-08T07:00:55;29.67;;;17.85;;
20890;SDS011;10605;52.968;8.844;2023-03-08T07:03:23;24.87;;;16.93;;
20890;SDS011;10605;52.968;8.844;2023-03-08T07:05:49;24.02;;;16.27;;
20890;SDS011;10605;52.968;8.844;2023-03-08T07:08:15;21.90;;;16.07;;
20890;SDS011;10605;52.968;8.844;2023-03-08T07:10:40;20.58;;;15.10;;
20890;SDS011;10605;52.968;8.844;2023-03-08T07:13:06;23.42;;;14.63;;
20890;SDS011;10605;52.968;8.844;2023-03-08T07:15:32;20.08;;;13.55;;
20890;SDS011;10605;52.968;8.844;2023-03-08T07:17:57;21.37;;;15.13;;
20890;SDS011;10605;52.968;8.844;2023-03-08T07:20:24;21.08;;;15.52;;
20890;SDS011;10605;52.968;8.844;2023-03-08T07:22:51;18.63;;;13.07;;
20890;SDS011;10605;52.968;8.844;2023-03-08T07:25:19;17.40;;;13.88;;
20890;SDS011;10605;52.968;8.844;2023-03-08T07:27:45;17.35;;;13.77;;
20890;SDS011;10605;52.968;8.844;2023-03-08T07:30:12;20.13;;;14.38;;
20890;SDS011;10605;52.968;8.844;2023-03-08T07:32:39;21.00;;;14.27;;
20890;SDS011;10605;52.968;8.844;2023-03-08T07:35:09;17.52;;;13.73;;
20890;SDS011;10605;52.968;8.844;2023-03-08T07:37:36;20.60;;;14.68;;
20890;SDS011;10605;52.968;8.844;2023-03-08T07:40:03;16.83;;;14.05;;
20890;SDS011;10605;52.968;8.844;2023-03-08T07:42:30;20.77;;;14.43;;
20890;SDS011;10605;52.968;8.844;2023-03-08T07:44:56;20.27;;;15.18;;
20890;SDS011;10605;52.968;8.844;2023-03-08T07:47:21;21.63;;;15.15;;
20890;SDS011;10605;52.968;8.844;2023-03-08T07:49:47;21.55;;;14.43;;
20890;SDS011;10605;52.968;8.844;2023-03-08T07:52:13;24.98;;;15.27;;
20890;SDS011;10605;52.968;8.844;2023-03-08T07:54:38;25.17;;;14.90;;
20890;SDS011;10605;52.968;8.844;2023-03-08T07:57:04;26.05;;;15.65;;
20890;SDS011;10605;52.968;8.844;2023-03-08T07:59:30;24.13;;;15.10;;
20890;SDS011;10605;52.968;8.844;2023-03-08T08:01:56;20.70;;;15.45;;
20890;SDS011;10605;52.968;8.844;2023-03-08T08:04:25;20.50;;;14.45;;
20890;SDS011;10605;52.968;8.844;2023-03-08T08:06:51;22.73;;;16.05;;
20890;SDS011;10605;52.968;8.844;2023-03-08T08:09:16;20.15;;;14.82;;
20890;SDS011;10605;52.968;8.844;2023-03-08T08:11:43;18.98;;;15.30;;
20890;SDS011;10605;52.968;8.844;2023-03-08T08:14:09;19.60;;;13.70;;
20890;SDS011;10605;52.968;8.844;2023-03-08T08:16:34;19.67;;;13.13;;
20890;SDS011;10605;52.968;8.844;2023-03-08T08:19:00;20.85;;;13.88;;
20890;SDS011;10605;52.968;8.844;2023-03-08T08:21:26;18.10;;;13.15;;
20890;SDS011;10605;52.968;8.844;2023-03-08T08:23:51;17.48;;;13.88;;
20890;SDS011;10605;52.968;8.844;2023-03-08T08:26:21;19.65;;;14.90;;
20890;SDS011;10605;52.968;8.844;2023-03-08T08:28:48;21.65;;;13.88;;
20890;SDS011;10605;52.968;8.844;2023-03-08T08:31:17;17.00;;;13.75;;
20890;SDS011;10605;52.968;8.844;2023-03-08T08:33:45;18.85;;;13.07;;
20890;SDS011;10605;52.968;8.844;2023-03-08T08:36:13;20.40;;;14.63;;
20890;SDS011;10605;52.968;8.844;2023-03-08T08:38:40;16.88;;;13.48;;
20890;SDS011;10605;52.968;8.844;2023-03-08T08:41:13;19.77;;;13.55;;
20890;SDS011;10605;52.968;8.844;2023-03-08T08:43:40;22.98;;;13.70;;
20890;SDS011;10605;52.968;8.844;2023-03-08T08:46:06;15.55;;;13.27;;
20890;SDS011;10605;52.968;8.844;2023-03-08T08:48:32;17.92;;;12.50;;
20890;SDS011;10605;52.968;8.844;2023-03-08T08:50:58;18.70;;;12.52;;
20890;SDS011;10605;52.968;8.844;2023-03-08T08:53:25;18.67;;;12.75;;
20890;SDS011;10605;52.968;8.844;2023-03-08T08:55:51;17.15;;;13.27;;
20890;SDS011;10605;52.968;8.844;2023-03-08T08:58:16;17.60;;;12.63;;
20890;SDS011;10605;52.968;8.844;2023-03-08T09:00:42;15.63;;;12.88;;
20890;SDS011;10605;52.968;8.844;2023-03-08T09:03:09;14.40;;;11.80;;
20890;SDS011;10605;52.968;8.844;2023-03-08T09:05:37;16.40;;;12.65;;
20890;SDS011;10605;52.968;8.844;2023-03-08T09:08:05;15.63;;;11.90;;
20890;SDS011;10605;52.968;8.844;2023-03-08T09:10:32;16.58;;;12.13;;
20890;SDS011;10605;52.968;8.844;2023-03-08T09:12:59;15.82;;;11.30;;
20890;SDS011;10605;52.968;8.844;2023-03-08T09:15:25;15.07;;;11.45;;
20890;SDS011;10605;52.968;8.844;2023-03-08T09:17:51;16.35;;;10.60;;
20890;SDS011;10605;52.968;8.844;2023-03-08T09:20:16;13.27;;;10.38;;
20890;SDS011;10605;52.968;8.844;2023-03-08T09:22:42;13.20;;;10.27;;
20890;SDS011;10605;52.968;8.844;2023-03-08T09:25:08;15.07;;;11.00;;
20890;SDS011;10605;52.968;8.844;2023-03-08T09:27:35;14.88;;;9.75;;
20890;SDS011;10605;52.968;8.844;2023-03-08T09:30:02;14.45;;;10.07;;
20890;SDS011;10605;52.968;8.844;2023-03-08T09:32:31;14.73;;;9.68;;
20890;SDS011;10605;52.968;8.844;2023-03-08T09:34:58;12.52;;;10.02;;
20890;SDS011;10605;52.968;8.844;2023-03-08T09:37:24;12.60;;;10.18;;
20890;SDS011;10605;52.968;8.844;2023-03-08T09:39:50;13.63;;;9.95;;
20890;SDS011;10605;52.968;8.844;2023-03-08T09:42:17;12.93;;;10.13;;
20890;SDS011;10605;52.968;8.844;2023-03-08T09:50:23;15.00;;;9.50;;
20890;SDS011;10605;52.968;8.844;2023-03-08T09:55:58;13.85;;;10.40;;
20890;SDS011;10605;52.968;8.844;2023-03-08T10:01:26;11.50;;;10.07;;
20890;SDS011;10605;52.968;8.844;2023-03-08T10:07:14;15.27;;;9.93;;
20890;SDS011;10605;52.968;8.844;2023-03-08T10:12:53;11.38;;;9.07;;
20890;SDS011;10605;52.968;8.844;2023-03-08T10:15:42;13.50;;;8.88;;
20890;SDS011;10605;52.968;8.844;2023-03-08T10:20:39;12.10;;;8.65;;
20890;SDS011;10605;52.968;8.844;2023-03-08T10:23:11;13.32;;;9.00;;
20890;SDS011;10605;52.968;8.844;2023-03-08T10:25:43;9.85;;;8.65;;
20890;SDS011;10605;52.968;8.844;2023-03-08T10:31:33;10.90;;;8.65;;
20890;SDS011;10605;52.968;8.844;2023-03-08T10:38:54;11.68;;;8.05;;
20890;SDS011;10605;52.968;8.844;2023-03-08T10:41:50;11.40;;;8.60;;
20890;SDS011;10605;52.968;8.844;2023-03-08T10:48:24;14.43;;;8.63;;
20890;SDS011;10605;52.968;8.844;2023-03-08T10:58:20;10.40;;;8.80;;
20890;SDS011;10605;52.968;8.844;2023-03-08T11:01:24;10.57;;;9.25;;
20890;SDS011;10605;52.968;8.844;2023-03-08T11:04:17;13.20;;;9.30;;
20890;SDS011;10605;52.968;8.844;2023-03-08T11:48:54;14.60;;;9.32;;
20890;SDS011;10605;52.968;8.844;2023-03-08T12:01:23;13.45;;;8.90;;
20890;SDS011;10605;52.968;8.844;2023-03-08T12:11:09;15.98;;;9.23;;
20890;SDS011;10605;52.968;8.844;2023-03-08T12:17:24;12.00;;;9.50;;
20890;SDS011;10605;52.968;8.844;2023-03-08T12:20:14;13.95;;;9.63;;
20890;SDS011;10605;52.968;8.844;2023-03-08T12:26:55;16.48;;;10.98;;
20890;SDS011;10605;52.968;8.844;2023-03-08T12:30:05;18.38;;;12.90;;
20890;SDS011;10605;52.968;8.844;2023-03-08T12:33:31;18.10;;;13.25;;
20890;SDS011;10605;52.968;8.844;2023-03-08T14:08:05;8.95;;;5.20;;
20890;SDS011;10605;52.968;8.844;2023-03-08T14:10:55;7.57;;;4.78;;
20890;SDS011;10605;52.968;8.844;2023-03-08T14:13:39;6.25;;;5.10;;
20890;SDS011;10605;52.968;8.844;2023-03-08T14:47:23;6.03;;;4.88;;
20890;SDS011;10605;52.968;8.844;2023-03-08T14:57:24;5.00;;;4.05;;
20890;SDS011;10605;52.968;8.844;2023-03-08T15:07:45;5.35;;;4.85;;
20890;SDS011;10605;52.968;8.844;2023-03-08T15:14:47;6.63;;;5.22;;
20890;SDS011;10605;52.968;8.844;2023-03-08T15:24:56;6.43;;;5.00;;
20890;SDS011;10605;52.968;8.844;2023-03-08T16:12:01;5.10;;;4.60;;
20890;SDS011;10605;52.968;8.844;2023-03-08T17:04:14;6.47;;;6.03;;
20890;SDS011;10605;52.968;8.844;2023-03-08T17:07:40;6.85;;;6.07;;
20890;SDS011;10605;52.968;8.844;2023-03-08T17:28:29;20.05;;;13.48;;
20890;SDS011;10605;52.968;8.844;2023-03-08T17:32:02;18.17;;;13.52;;
20890;SDS011;10605;52.968;8.844;2023-03-08T17:34:33;19.75;;;14.80;;
20890;SDS011;10605;52.968;8.844;2023-03-08T17:36:58;23.00;;;15.48;;
20890;SDS011;10605;52.968;8.844;2023-03-08T17:39:27;20.85;;;14.80;;
20890;SDS011;10605;52.968;8.844;2023-03-08T17:41:54;19.65;;;14.13;;
20890;SDS011;10605;52.968;8.844;2023-03-08T17:44:19;22.10;;;14.18;;
20890;SDS011;10605;52.968;8.844;2023-03-08T17:46:45;19.10;;;13.70;;
20890;SDS011;10605;52.968;8.844;2023-03-08T17:49:11;16.52;;;13.20;;
20890;SDS011;10605;52.968;8.844;2023-03-08T17:51:50;19.38;;;14.05;;
20890;SDS011;10605;52.968;8.844;2023-03-08T17:54:39;17.25;;;12.75;;
20890;SDS011;10605;52.968;8.844;2023-03-08T17:57:06;17.17;;;12.65;;
20890;SDS011;10605;52.968;8.844;2023-03-08T17:59:45;18.80;;;13.15;;
20890;SDS011;10605;52.968;8.844;2023-03-08T18:02:13;20.42;;;13.20;;
20890;SDS011;10605;52.968;8.844;2023-03-08T18:05:01;17.67;;;12.65;;
20890;SDS011;10605;52.968;8.844;2023-03-08T18:07:47;14.75;;;11.73;;
20890;SDS011;10605;52.968;8.844;2023-03-08T18:10:39;17.48;;;12.60;;
20890;SDS011;10605;52.968;8.844;2023-03-08T18:13:22;14.27;;;11.63;;
20890;SDS011;10605;52.968;8.844;2023-03-08T18:16:00;13.85;;;11.88;;
20890;SDS011;10605;52.968;8.844;2023-03-08T18:19:10;17.30;;;11.95;;
20890;SDS011;10605;52.968;8.844;2023-03-08T18:21:43;15.15;;;11.70;;
20890;SDS011;10605;52.968;8.844;2023-03-08T18:24:27;14.32;;;12.05;;
20890;SDS011;10605;52.968;8.844;2023-03-08T18:26:52;15.55;;;12.50;;
20890;SDS011;10605;52.968;8.844;2023-03-08T18:29:22;14.85;;;11.55;;
20890;SDS011;10605;52.968;8.844;2023-03-08T18:31:48;21.38;;;12.23;;
20890;SDS011;10605;52.968;8.844;2023-03-08T18:34:14;13.98;;;12.20;;
20890;SDS011;10605;52.968;8.844;2023-03-08T18:36:53;15.57;;;12.00;;
20890;SDS011;10605;52.968;8.844;2023-03-08T18:39:20;15.20;;;12.52;;
20890;SDS011;10605;52.968;8.844;2023-03-08T18:49:27;15.05;;;11.20;;
20890;SDS011;10605;52.968;8.844;2023-03-08T18:52:24;14.65;;;12.00;;
20890;SDS011;10605;52.968;8.844;2023-03-08T18:54:49;15.65;;;11.98;;
20890;SDS011;10605;52.968;8.844;2023-03-08T18:57:22;14.52;;;12.00;;
20890;SDS011;10605;52.968;8.844;2023-03-08T18:59:48;17.45;;;12.73;;
20890;SDS011;10605;52.968;8.844;2023-03-08T19:02:13;18.17;;;12.35;;
20890;SDS011;10605;52.968;8.844;2023-03-08T19:04:49;19.60;;;12.73;;
20890;SDS011;10605;52.968;8.844;2023-03-08T19:07:17;17.20;;;12.63;;
20890;SDS011;10605;52.968;8.844;2023-03-08T19:09:52;14.55;;;12.25;;
20890;SDS011;10605;52.968;8.844;2023-03-08T19:12:18;19.35;;;12.13;;
20890;SDS011;10605;52.968;8.844;2023-03-08T19:14:47;18.35;;;12.35;;
20890;SDS011;10605;52.968;8.844;2023-03-08T19:17:35;16.40;;;13.02;;
20890;SDS011;10605;52.968;8.844;2023-03-08T19:20:25;17.50;;;12.70;;
20890;SDS011;10605;52.968;8.844;2023-03-08T19:22:51;16.87;;;12.70;;
20890;SDS011;10605;52.968;8.844;2023-03-08T19:25:20;17.07;;;13.30;;
20890;SDS011;10605;52.968;8.844;2023-03-08T19:28:28;21.02;;;14.00;;
20890;SDS011;10605;52.968;8.844;2023-03-08T19:30:58;21.05;;;13.32;;
20890;SDS011;10605;52.968;8.844;2023-03-08T19:33:24;19.53;;;13.90;;
20890;SDS011;10605;52.968;8.844;2023-03-08T19:35:53;18.33;;;13.90;;
20890;SDS011;10605;52.968;8.844;2023-03-08T19:38:19;19.48;;;13.50;;
20890;SDS011;10605;52.968;8.844;2023-03-08T19:40:45;18.52;;;13.63;;
20890;SDS011;10605;52.968;8.844;2023-03-08T19:43:11;24.10;;;13.70;;
20890;SDS011;10605;52.968;8.844;2023-03-08T19:45:36;21.73;;;13.50;;
20890;SDS011;10605;52.968;8.844;2023-03-08T19:48:03;18.33;;;13.38;;
20890;SDS011;10605;52.968;8.844;2023-03-08T19:50:31;15.98;;;12.70;;
20890;SDS011;10605;52.968;8.844;2023-03-08T19:52:57;18.83;;;12.27;;
20890;SDS011;10605;52.968;8.844;2023-03-08T19:55:23;16.60;;;12.38;;
20890;SDS011;10605;52.968;8.844;2023-03-08T19:57:48;15.23;;;12.27;;
20890;SDS011;10605;52.968;8.844;2023-03-08T20:00:14;18.15;;;12.88;;
20890;SDS011;10605;52.968;8.844;2023-03-08T20:02:40;19.13;;;12.85;;
20890;SDS011;10605;52.968;8.844;2023-03-08T20:05:09;20.80;;;13.50;;
20890;SDS011;10605;52.968;8.844;2023-03-08T20:07:35;21.55;;;14.18;;
20890;SDS011;10605;52.968;8.844;2023-03-08T20:10:01;18.52;;;13.90;;
20890;SDS011;10605;52.968;8.844;2023-03-08T20:12:27;19.48;;;13.95;;
20890;SDS011;10605;52.968;8.844;2023-03-08T20:14:52;21.02;;;14.88;;
20890;SDS011;10605;52.968;8.844;2023-03-08T20:17:18;18.30;;;14.18;;
20890;SDS011;10605;52.968;8.844;2023-03-08T20:19:46;20.20;;;14.00;;
20890;SDS011;10605;52.968;8.844;2023-03-08T20:22:12;21.08;;;15.05;;
20890;SDS011;10605;52.968;8.844;2023-03-08T20:24:38;18.23;;;14.23;;
20890;SDS011;10605;52.968;8.844;2023-03-08T20:27:03;19.60;;;13.57;;
20890;SDS011;10605;52.968;8.844;2023-03-08T20:29:29;19.70;;;14.18;;
20890;SDS011;10605;52.968;8.844;2023-03-08T20:31:55;19.80;;;14.23;;
20890;SDS011;10605;52.968;8.844;2023-03-08T20:34:23;22.13;;;13.60;;
20890;SDS011;10605;52.968;8.844;2023-03-08T20:36:49;17.20;;;13.02;;
20890;SDS011;10605;52.968;8.844;2023-03-08T20:39:15;15.40;;;12.65;;
20890;SDS011;10605;52.968;8.844;2023-03-08T20:41:42;21.08;;;13.50;;
20890;SDS011;10605;52.968;8.844;2023-03-08T20:44:09;13.63;;;11.90;;
20890;SDS011;10605;52.968;8.844;2023-03-08T20:46:35;19.52;;;12.30;;
20890;SDS011;10605;52.968;8.844;2023-03-08T20:49:01;15.75;;;12.63;;
20890;SDS011;10605;52.968;8.844;2023-03-08T20:51:33;17.83;;;13.27;;
20890;SDS011;10605;52.968;8.844;2023-03-08T20:54:10;16.63;;;12.57;;
20890;SDS011;10605;52.968;8.844;2023-03-08T20:56:36;17.37;;;13.10;;
20890;SDS011;10605;52.968;8.844;2023-03-08T20:59:05;15.15;;;12.10;;
20890;SDS011;10605;52.968;8.844;2023-03-08T21:01:32;15.38;;;12.93;;